Decoded Metar for MYNN (NASSAU in BAHAMAS) (IATA:NAS) | Meteo·Mobile Aviation Weather
aviador You're here:

MYNN Decoded Metar

NASSAU in BAHAMAS
Report Time2018-12-19 15:00:00
UTC Time2018-12-19 15:20:06
Flight Rules vfr VFR
Wind120° at 07 kt
W.Decomp.*RWY 14: 6.8 kt HW 1.5 kt LCW
RWY 09: 5.5 kt HW 4.3 kt RCW
W.Rank120° ranks 6
Current wind is above 120° avg. (6.6)
Visibility9999 m
Phenomena:N/A
Clouds:Scattered 020 Hf
Scattered 035 Hf
Expected CloudBase > 2,800 ft AGL from Temp-Dew spread
CeilingNone
Temp26°C (ISA +11)
Dew Point19°C (65% RH)
QNH1019 hPa
Density Alt1,371 ft
Elevation10 ft
Report Wrong Elevation
Raw Report
METAR MYNN 191500Z 12007KT 9999 SCT020 SCT035 26/19 A3010=

Extra information for MYNN:More info

Metar Taf Metar & Taf Last 4 Metars F.Rules Stats Wind Profile Meteogram Temp Stats Airport Information Weather charts Add Link Nearby VenuesMetar ALERT Operation Metar Decoded Social comments